Pflugerville's Hourly Summary for Friday, July 6, 2018
Hour Temp
(f)
RH
(%)
Solar Rad.
(MJ/m2)
Rainfall
(in)
Wind
(mph)
7/6/2018 12:00 AM 82 62 0 0 0
7/6/2018 1:00 AM 82 64 0 0 0.26
7/6/2018 2:00 AM 81 64 0 0 0.26
7/6/2018 3:00 AM 80 69 0 0 1.45
7/6/2018 4:00 AM 79 71 0 0.01 1.85
7/6/2018 5:00 AM 78 86 0 0 1.85
7/6/2018 6:00 AM 77 87 0.01 0 0.81
7/6/2018 7:00 AM 76 87 0.01 0 0.08
7/6/2018 8:00 AM 79 86 0.34 0 4.94
7/6/2018 9:00 AM 82 73 0.8 0 5.17
7/6/2018 10:00 AM 84 67 1.92 0 5.17
7/6/2018 11:00 AM 86 64 2.56 0 5.45
7/6/2018 12:00 PM 88 57 2.56 0 6.07
7/6/2018 1:00 PM 90 50 2.84 0 6.07
7/6/2018 2:00 PM 91 43 3.24 0 5.75
7/6/2018 3:00 PM 93 40 3.24 0 5.63
7/6/2018 4:00 PM 93 36 2.99 0 5.36
7/6/2018 5:00 PM 93 38 2.56 0 3.15
7/6/2018 6:00 PM 93 38 1.78 0 2.27
7/6/2018 7:00 PM 92 41 1.02 0 2.27
7/6/2018 8:00 PM 90 45 0.26 0 2
7/6/2018 9:00 PM 86 57 0.03 0 6.14
7/6/2018 10:00 PM 83 62 0 0 6.14
7/6/2018 11:00 PM 82 66 0 0 5.08
Data Summary 85 60 26.16 0.01 3.47